sensor_id;sensor_type;location;lat;lon;timestamp;P1;durP1;ratioP1;P2;durP2;ratioP2
49043;SDS011;34860;48.066;14.124;2024-02-16T00:00:55;3.42;;;1.27;;
49043;SDS011;34860;48.066;14.124;2024-02-16T00:03:46;8.13;;;1.73;;
49043;SDS011;34860;48.066;14.124;2024-02-16T00:06:35;3.58;;;1.42;;
49043;SDS011;34860;48.066;14.124;2024-02-16T00:09:24;2.25;;;1.30;;
49043;SDS011;34860;48.066;14.124;2024-02-16T00:12:14;6.78;;;1.48;;
49043;SDS011;34860;48.066;14.124;2024-02-16T00:15:04;6.10;;;1.73;;
49043;SDS011;34860;48.066;14.124;2024-02-16T00:17:53;3.70;;;1.90;;
49043;SDS011;34860;48.066;14.124;2024-02-16T00:20:44;3.55;;;1.52;;
49043;SDS011;34860;48.066;14.124;2024-02-16T00:23:34;9.95;;;2.05;;
49043;SDS011;34860;48.066;14.124;2024-02-16T00:26:23;3.97;;;0.90;;
49043;SDS011;34860;48.066;14.124;2024-02-16T00:29:12;4.53;;;1.90;;
49043;SDS011;34860;48.066;14.124;2024-02-16T00:32:01;3.75;;;2.10;;
49043;SDS011;34860;48.066;14.124;2024-02-16T00:34:50;9.52;;;2.33;;
49043;SDS011;34860;48.066;14.124;2024-02-16T00:37:42;3.42;;;1.70;;
49043;SDS011;34860;48.066;14.124;2024-02-16T00:40:33;4.15;;;1.70;;
49043;SDS011;34860;48.066;14.124;2024-02-16T00:43:22;3.25;;;1.85;;
49043;SDS011;34860;48.066;14.124;2024-02-16T00:46:12;3.78;;;2.10;;
49043;SDS011;34860;48.066;14.124;2024-02-16T00:49:01;4.78;;;1.95;;
49043;SDS011;34860;48.066;14.124;2024-02-16T00:51:51;4.38;;;1.05;;
49043;SDS011;34860;48.066;14.124;2024-02-16T00:54:43;4.72;;;2.08;;
49043;SDS011;34860;48.066;14.124;2024-02-16T00:57:32;4.22;;;1.95;;
49043;SDS011;34860;48.066;14.124;2024-02-16T01:00:21;3.20;;;1.67;;
49043;SDS011;34860;48.066;14.124;2024-02-16T01:03:11;3.75;;;1.75;;
49043;SDS011;34860;48.066;14.124;2024-02-16T01:06:01;5.55;;;1.63;;
49043;SDS011;34860;48.066;14.124;2024-02-16T01:08:50;5.95;;;1.98;;
49043;SDS011;34860;48.066;14.124;2024-02-16T01:11:43;4.90;;;1.50;;
49043;SDS011;34860;48.066;14.124;2024-02-16T01:14:32;4.82;;;1.75;;
49043;SDS011;34860;48.066;14.124;2024-02-16T01:17:24;3.45;;;1.88;;
49043;SDS011;34860;48.066;14.124;2024-02-16T01:20:13;9.18;;;1.58;;
49043;SDS011;34860;48.066;14.124;2024-02-16T01:23:03;5.85;;;2.22;;
49043;SDS011;34860;48.066;14.124;2024-02-16T01:25:52;6.35;;;2.10;;
49043;SDS011;34860;48.066;14.124;2024-02-16T01:28:43;5.72;;;2.00;;
49043;SDS011;34860;48.066;14.124;2024-02-16T01:31:33;4.57;;;2.40;;
49043;SDS011;34860;48.066;14.124;2024-02-16T01:34:23;4.30;;;2.53;;
49043;SDS011;34860;48.066;14.124;2024-02-16T01:37:12;5.63;;;2.97;;
49043;SDS011;34860;48.066;14.124;2024-02-16T01:40:02;6.30;;;3.15;;
49043;SDS011;34860;48.066;14.124;2024-02-16T01:42:51;3.35;;;1.83;;
49043;SDS011;34860;48.066;14.124;2024-02-16T01:45:42;8.20;;;2.03;;
49043;SDS011;34860;48.066;14.124;2024-02-16T01:48:31;15.55;;;2.75;;
49043;SDS011;34860;48.066;14.124;2024-02-16T01:51:21;8.77;;;3.08;;
49043;SDS011;34860;48.066;14.124;2024-02-16T01:54:12;6.22;;;2.55;;
49043;SDS011;34860;48.066;14.124;2024-02-16T01:57:02;12.00;;;3.53;;
49043;SDS011;34860;48.066;14.124;2024-02-16T01:59:54;10.50;;;3.42;;
49043;SDS011;34860;48.066;14.124;2024-02-16T02:02:46;4.78;;;2.88;;
49043;SDS011;34860;48.066;14.124;2024-02-16T02:05:43;5.90;;;2.28;;
49043;SDS011;34860;48.066;14.124;2024-02-16T02:08:34;6.93;;;3.05;;
49043;SDS011;34860;48.066;14.124;2024-02-16T02:11:23;12.63;;;3.95;;
49043;SDS011;34860;48.066;14.124;2024-02-16T02:14:13;6.90;;;2.97;;
49043;SDS011;34860;48.066;14.124;2024-02-16T02:17:02;8.85;;;3.20;;
49043;SDS011;34860;48.066;14.124;2024-02-16T02:19:53;11.93;;;4.43;;
49043;SDS011;34860;48.066;14.124;2024-02-16T02:22:44;10.30;;;4.35;;
49043;SDS011;34860;48.066;14.124;2024-02-16T02:25:33;11.63;;;3.63;;
49043;SDS011;34860;48.066;14.124;2024-02-16T02:28:23;9.90;;;4.25;;
49043;SDS011;34860;48.066;14.124;2024-02-16T02:31:13;8.80;;;3.88;;
49043;SDS011;34860;48.066;14.124;2024-02-16T02:34:02;4.30;;;2.80;;
49043;SDS011;34860;48.066;14.124;2024-02-16T02:36:52;7.45;;;3.45;;
49043;SDS011;34860;48.066;14.124;2024-02-16T02:39:43;7.65;;;3.78;;
49043;SDS011;34860;48.066;14.124;2024-02-16T02:42:33;8.43;;;3.25;;
49043;SDS011;34860;48.066;14.124;2024-02-16T02:45:22;6.93;;;4.18;;
49043;SDS011;34860;48.066;14.124;2024-02-16T02:48:11;7.80;;;3.47;;
49043;SDS011;34860;48.066;14.124;2024-02-16T02:51:02;6.97;;;3.80;;
49043;SDS011;34860;48.066;14.124;2024-02-16T02:53:51;8.43;;;3.90;;
49043;SDS011;34860;48.066;14.124;2024-02-16T02:56:42;7.90;;;4.05;;
49043;SDS011;34860;48.066;14.124;2024-02-16T02:59:32;11.90;;;5.00;;
49043;SDS011;34860;48.066;14.124;2024-02-16T03:02:21;7.82;;;3.78;;
49043;SDS011;34860;48.066;14.124;2024-02-16T03:05:10;10.98;;;3.95;;
49043;SDS011;34860;48.066;14.124;2024-02-16T03:07:59;9.68;;;4.20;;
49043;SDS011;34860;48.066;14.124;2024-02-16T03:10:50;6.78;;;2.90;;
49043;SDS011;34860;48.066;14.124;2024-02-16T03:13:41;10.20;;;3.38;;
49043;SDS011;34860;48.066;14.124;2024-02-16T03:16:30;12.32;;;3.65;;
49043;SDS011;34860;48.066;14.124;2024-02-16T03:19:19;7.88;;;3.88;;
49043;SDS011;34860;48.066;14.124;2024-02-16T03:22:09;8.50;;;4.07;;
49043;SDS011;34860;48.066;14.124;2024-02-16T03:24:59;11.30;;;5.47;;
49043;SDS011;34860;48.066;14.124;2024-02-16T03:27:49;10.43;;;4.47;;
49043;SDS011;34860;48.066;14.124;2024-02-16T03:30:40;8.70;;;3.67;;
49043;SDS011;34860;48.066;14.124;2024-02-16T03:33:29;12.00;;;4.47;;
49043;SDS011;34860;48.066;14.124;2024-02-16T03:36:19;6.47;;;3.90;;
49043;SDS011;34860;48.066;14.124;2024-02-16T03:39:09;9.23;;;4.30;;
49043;SDS011;34860;48.066;14.124;2024-02-16T03:42:02;14.55;;;5.40;;
49043;SDS011;34860;48.066;14.124;2024-02-16T03:44:51;10.82;;;4.97;;
49043;SDS011;34860;48.066;14.124;2024-02-16T03:47:42;9.32;;;4.10;;
49043;SDS011;34860;48.066;14.124;2024-02-16T03:50:31;11.57;;;4.55;;
49043;SDS011;34860;48.066;14.124;2024-02-16T03:53:20;13.60;;;4.47;;
49043;SDS011;34860;48.066;14.124;2024-02-16T03:56:09;13.98;;;5.32;;
49043;SDS011;34860;48.066;14.124;2024-02-16T03:58:59;12.50;;;5.55;;
49043;SDS011;34860;48.066;14.124;2024-02-16T04:01:48;9.68;;;4.75;;
49043;SDS011;34860;48.066;14.124;2024-02-16T04:04:40;12.27;;;4.82;;
49043;SDS011;34860;48.066;14.124;2024-02-16T04:07:29;11.38;;;4.72;;
49043;SDS011;34860;48.066;14.124;2024-02-16T04:10:18;11.43;;;5.13;;
49043;SDS011;34860;48.066;14.124;2024-02-16T04:13:08;11.05;;;5.13;;
49043;SDS011;34860;48.066;14.124;2024-02-16T04:15:57;12.25;;;4.85;;
49043;SDS011;34860;48.066;14.124;2024-02-16T04:18:46;9.68;;;5.20;;
49043;SDS011;34860;48.066;14.124;2024-02-16T04:21:37;13.23;;;4.78;;
49043;SDS011;34860;48.066;14.124;2024-02-16T04:24:26;12.25;;;5.55;;
49043;SDS011;34860;48.066;14.124;2024-02-16T04:27:15;13.15;;;6.60;;
49043;SDS011;34860;48.066;14.124;2024-02-16T04:30:05;11.05;;;4.47;;
49043;SDS011;34860;48.066;14.124;2024-02-16T04:32:55;13.05;;;5.85;;
49043;SDS011;34860;48.066;14.124;2024-02-16T04:35:44;12.35;;;6.45;;
49043;SDS011;34860;48.066;14.124;2024-02-16T04:38:37;11.88;;;5.43;;
49043;SDS011;34860;48.066;14.124;2024-02-16T04:41:26;15.20;;;5.85;;
49043;SDS011;34860;48.066;14.124;2024-02-16T04:44:18;11.43;;;5.05;;
49043;SDS011;34860;48.066;14.124;2024-02-16T04:47:09;12.20;;;6.10;;
49043;SDS011;34860;48.066;14.124;2024-02-16T04:50:02;17.17;;;6.57;;
49043;SDS011;34860;48.066;14.124;2024-02-16T04:52:52;11.32;;;5.22;;
49043;SDS011;34860;48.066;14.124;2024-02-16T04:55:42;14.32;;;6.05;;
49043;SDS011;34860;48.066;14.124;2024-02-16T04:58:32;27.90;;;5.47;;
49043;SDS011;34860;48.066;14.124;2024-02-16T05:01:21;13.35;;;6.28;;
49043;SDS011;34860;48.066;14.124;2024-02-16T05:04:10;10.30;;;5.47;;
49043;SDS011;34860;48.066;14.124;2024-02-16T05:07:00;14.27;;;5.15;;
49043;SDS011;34860;48.066;14.124;2024-02-16T05:09:50;22.60;;;4.70;;
49043;SDS011;34860;48.066;14.124;2024-02-16T05:12:44;12.35;;;5.18;;
49043;SDS011;34860;48.066;14.124;2024-02-16T05:15:34;19.73;;;4.28;;
49043;SDS011;34860;48.066;14.124;2024-02-16T05:18:23;7.20;;;4.50;;
49043;SDS011;34860;48.066;14.124;2024-02-16T05:21:12;24.98;;;5.25;;
49043;SDS011;34860;48.066;14.124;2024-02-16T05:24:01;10.43;;;3.75;;
49043;SDS011;34860;48.066;14.124;2024-02-16T05:26:51;9.60;;;4.10;;
49043;SDS011;34860;48.066;14.124;2024-02-16T05:29:44;54.13;;;5.00;;
49043;SDS011;34860;48.066;14.124;2024-02-16T05:32:34;6.63;;;4.00;;
49043;SDS011;34860;48.066;14.124;2024-02-16T05:35:23;10.40;;;3.88;;
49043;SDS011;34860;48.066;14.124;2024-02-16T05:38:15;8.60;;;3.58;;
49043;SDS011;34860;48.066;14.124;2024-02-16T05:41:19;13.32;;;3.53;;
49043;SDS011;34860;48.066;14.124;2024-02-16T05:44:08;25.88;;;5.07;;
49043;SDS011;34860;48.066;14.124;2024-02-16T05:46:59;19.13;;;4.05;;
49043;SDS011;34860;48.066;14.124;2024-02-16T05:49:48;7.15;;;4.28;;
49043;SDS011;34860;48.066;14.124;2024-02-16T05:52:37;7.20;;;4.10;;
49043;SDS011;34860;48.066;14.124;2024-02-16T05:55:28;9.32;;;4.07;;
49043;SDS011;34860;48.066;14.124;2024-02-16T05:58:17;9.38;;;2.83;;
49043;SDS011;34860;48.066;14.124;2024-02-16T06:01:06;20.60;;;3.88;;
49043;SDS011;34860;48.066;14.124;2024-02-16T06:03:59;10.32;;;4.05;;
49043;SDS011;34860;48.066;14.124;2024-02-16T06:06:48;16.58;;;4.25;;
49043;SDS011;34860;48.066;14.124;2024-02-16T06:09:37;19.77;;;4.10;;
49043;SDS011;34860;48.066;14.124;2024-02-16T06:12:26;5.75;;;3.67;;
49043;SDS011;34860;48.066;14.124;2024-02-16T06:15:16;8.45;;;3.72;;
49043;SDS011;34860;48.066;14.124;2024-02-16T06:18:05;12.93;;;5.35;;
49043;SDS011;34860;48.066;14.124;2024-02-16T06:21:16;9.48;;;3.97;;
49043;SDS011;34860;48.066;14.124;2024-02-16T06:24:06;9.20;;;3.47;;
49043;SDS011;34860;48.066;14.124;2024-02-16T06:26:56;10.68;;;4.82;;
49043;SDS011;34860;48.066;14.124;2024-02-16T06:29:45;13.13;;;4.35;;
49043;SDS011;34860;48.066;14.124;2024-02-16T06:32:35;9.32;;;3.65;;
49043;SDS011;34860;48.066;14.124;2024-02-16T06:35:24;11.57;;;4.82;;
49043;SDS011;34860;48.066;14.124;2024-02-16T06:38:15;39.50;;;6.32;;
49043;SDS011;34860;48.066;14.124;2024-02-16T06:41:05;7.95;;;4.07;;
49043;SDS011;34860;48.066;14.124;2024-02-16T06:43:55;42.78;;;5.93;;
49043;SDS011;34860;48.066;14.124;2024-02-16T06:46:44;13.52;;;5.85;;
49043;SDS011;34860;48.066;14.124;2024-02-16T06:49:33;6.03;;;4.35;;
49043;SDS011;34860;48.066;14.124;2024-02-16T06:52:22;29.88;;;5.80;;
49043;SDS011;34860;48.066;14.124;2024-02-16T06:55:13;13.43;;;5.13;;
49043;SDS011;34860;48.066;14.124;2024-02-16T06:58:03;20.05;;;5.63;;
49043;SDS011;34860;48.066;14.124;2024-02-16T07:00:52;19.42;;;5.97;;
49043;SDS011;34860;48.066;14.124;2024-02-16T07:03:42;10.73;;;4.05;;
49043;SDS011;34860;48.066;14.124;2024-02-16T07:06:32;12.00;;;5.25;;
49043;SDS011;34860;48.066;14.124;2024-02-16T07:09:21;30.00;;;5.95;;
49043;SDS011;34860;48.066;14.124;2024-02-16T07:12:12;33.88;;;6.38;;
49043;SDS011;34860;48.066;14.124;2024-02-16T07:15:02;22.73;;;6.15;;
49043;SDS011;34860;48.066;14.124;2024-02-16T07:17:52;27.40;;;5.57;;
49043;SDS011;34860;48.066;14.124;2024-02-16T07:20:42;13.20;;;6.85;;
49043;SDS011;34860;48.066;14.124;2024-02-16T07:23:33;16.65;;;4.68;;
49043;SDS011;34860;48.066;14.124;2024-02-16T07:26:22;11.48;;;5.93;;
49043;SDS011;34860;48.066;14.124;2024-02-16T07:29:13;40.53;;;6.07;;
49043;SDS011;34860;48.066;14.124;2024-02-16T07:32:04;34.47;;;7.28;;
49043;SDS011;34860;48.066;14.124;2024-02-16T07:34:54;60.05;;;9.25;;
49043;SDS011;34860;48.066;14.124;2024-02-16T07:37:43;27.13;;;7.20;;
49043;SDS011;34860;48.066;14.124;2024-02-16T07:40:32;23.90;;;7.43;;
49043;SDS011;34860;48.066;14.124;2024-02-16T07:43:21;14.93;;;7.15;;
49043;SDS011;34860;48.066;14.124;2024-02-16T07:46:12;28.08;;;7.93;;
49043;SDS011;34860;48.066;14.124;2024-02-16T07:49:02;44.03;;;7.22;;
49043;SDS011;34860;48.066;14.124;2024-02-16T07:51:51;21.08;;;6.63;;
49043;SDS011;34860;48.066;14.124;2024-02-16T07:54:40;16.40;;;7.18;;
49043;SDS011;34860;48.066;14.124;2024-02-16T07:57:29;32.13;;;7.75;;
49043;SDS011;34860;48.066;14.124;2024-02-16T08:00:21;39.85;;;9.18;;
49043;SDS011;34860;48.066;14.124;2024-02-16T08:03:12;19.45;;;8.48;;
49043;SDS011;34860;48.066;14.124;2024-02-16T08:06:01;18.70;;;7.00;;
49043;SDS011;34860;48.066;14.124;2024-02-16T08:08:51;22.48;;;7.25;;
49043;SDS011;34860;48.066;14.124;2024-02-16T08:11:40;18.73;;;8.05;;
49043;SDS011;34860;48.066;14.124;2024-02-16T08:14:29;16.42;;;6.38;;
49043;SDS011;34860;48.066;14.124;2024-02-16T08:17:19;19.10;;;7.80;;
49043;SDS011;34860;48.066;14.124;2024-02-16T08:20:11;20.58;;;7.22;;
49043;SDS011;34860;48.066;14.124;2024-02-16T08:23:02;15.23;;;8.23;;
49043;SDS011;34860;48.066;14.124;2024-02-16T08:25:51;14.77;;;7.72;;
49043;SDS011;34860;48.066;14.124;2024-02-16T08:28:43;18.58;;;8.00;;
49043;SDS011;34860;48.066;14.124;2024-02-16T08:31:32;18.27;;;6.93;;
49043;SDS011;34860;48.066;14.124;2024-02-16T08:34:21;17.55;;;7.45;;
49043;SDS011;34860;48.066;14.124;2024-02-16T08:37:15;16.30;;;6.88;;
49043;SDS011;34860;48.066;14.124;2024-02-16T08:40:06;15.30;;;7.13;;
49043;SDS011;34860;48.066;14.124;2024-02-16T08:43:01;16.50;;;7.20;;
49043;SDS011;34860;48.066;14.124;2024-02-16T08:45:50;21.67;;;7.82;;
49043;SDS011;34860;48.066;14.124;2024-02-16T08:48:40;18.55;;;6.53;;
49043;SDS011;34860;48.066;14.124;2024-02-16T08:51:29;16.50;;;7.80;;
49043;SDS011;34860;48.066;14.124;2024-02-16T08:54:22;18.85;;;7.50;;
49043;SDS011;34860;48.066;14.124;2024-02-16T08:57:11;13.13;;;6.88;;
49043;SDS011;34860;48.066;14.124;2024-02-16T09:00:01;18.45;;;7.78;;
49043;SDS011;34860;48.066;14.124;2024-02-16T09:02:51;16.42;;;6.60;;
49043;SDS011;34860;48.066;14.124;2024-02-16T09:05:40;24.88;;;8.05;;
49043;SDS011;34860;48.066;14.124;2024-02-16T09:08:30;19.85;;;8.73;;
49043;SDS011;34860;48.066;14.124;2024-02-16T09:11:22;21.70;;;8.77;;
49043;SDS011;34860;48.066;14.124;2024-02-16T09:14:12;14.45;;;7.28;;
49043;SDS011;34860;48.066;14.124;2024-02-16T09:17:01;17.42;;;6.85;;
49043;SDS011;34860;48.066;14.124;2024-02-16T09:19:51;18.48;;;8.52;;
49043;SDS011;34860;48.066;14.124;2024-02-16T09:22:41;19.00;;;7.68;;
49043;SDS011;34860;48.066;14.124;2024-02-16T09:25:33;19.10;;;7.82;;
49043;SDS011;34860;48.066;14.124;2024-02-16T09:28:25;21.80;;;7.90;;
49043;SDS011;34860;48.066;14.124;2024-02-16T09:31:15;17.50;;;7.78;;
49043;SDS011;34860;48.066;14.124;2024-02-16T09:34:05;14.10;;;7.15;;
49043;SDS011;34860;48.066;14.124;2024-02-16T09:36:55;20.33;;;8.07;;
49043;SDS011;34860;48.066;14.124;2024-02-16T09:39:44;13.63;;;6.63;;
49043;SDS011;34860;48.066;14.124;2024-02-16T09:42:33;15.60;;;7.57;;
49043;SDS011;34860;48.066;14.124;2024-02-16T09:45:29;19.67;;;7.97;;
49043;SDS011;34860;48.066;14.124;2024-02-16T09:48:19;13.40;;;6.55;;
49043;SDS011;34860;48.066;14.124;2024-02-16T09:51:09;17.50;;;7.75;;
49043;SDS011;34860;48.066;14.124;2024-02-16T09:53:59;18.05;;;6.90;;
49043;SDS011;34860;48.066;14.124;2024-02-16T09:56:48;17.42;;;6.75;;
49043;SDS011;34860;48.066;14.124;2024-02-16T09:59:37;15.13;;;6.88;;
49043;SDS011;34860;48.066;14.124;2024-02-16T10:02:28;19.58;;;8.80;;
49043;SDS011;34860;48.066;14.124;2024-02-16T10:05:29;17.75;;;6.30;;
49043;SDS011;34860;48.066;14.124;2024-02-16T10:08:18;25.33;;;11.98;;
49043;SDS011;34860;48.066;14.124;2024-02-16T10:11:08;26.80;;;10.27;;
49043;SDS011;34860;48.066;14.124;2024-02-16T10:13:57;28.90;;;12.02;;
49043;SDS011;34860;48.066;14.124;2024-02-16T10:16:48;30.90;;;13.60;;
49043;SDS011;34860;48.066;14.124;2024-02-16T10:19:56;31.20;;;12.30;;
49043;SDS011;34860;48.066;14.124;2024-02-16T10:22:46;35.58;;;14.48;;
49043;SDS011;34860;48.066;14.124;2024-02-16T10:25:35;30.20;;;13.60;;
49043;SDS011;34860;48.066;14.124;2024-02-16T10:28:29;38.22;;;14.60;;
49043;SDS011;34860;48.066;14.124;2024-02-16T10:31:22;32.70;;;12.77;;
49043;SDS011;34860;48.066;14.124;2024-02-16T10:34:15;31.17;;;12.40;;
49043;SDS011;34860;48.066;14.124;2024-02-16T10:37:07;37.40;;;14.15;;
49043;SDS011;34860;48.066;14.124;2024-02-16T10:39:57;33.25;;;13.70;;
49043;SDS011;34860;48.066;14.124;2024-02-16T10:42:48;30.30;;;13.63;;
49043;SDS011;34860;48.066;14.124;2024-02-16T10:45:40;32.10;;;13.95;;
49043;SDS011;34860;48.066;14.124;2024-02-16T10:48:29;29.55;;;12.35;;
49043;SDS011;34860;48.066;14.124;2024-02-16T10:51:23;31.13;;;11.73;;
49043;SDS011;34860;48.066;14.124;2024-02-16T10:54:17;23.05;;;10.93;;
49043;SDS011;34860;48.066;14.124;2024-02-16T10:57:08;28.80;;;11.05;;
49043;SDS011;34860;48.066;14.124;2024-02-16T10:59:58;28.15;;;11.18;;
49043;SDS011;34860;48.066;14.124;2024-02-16T11:02:51;32.50;;;12.25;;
49043;SDS011;34860;48.066;14.124;2024-02-16T11:05:42;29.15;;;12.32;;
49043;SDS011;34860;48.066;14.124;2024-02-16T11:08:37;37.45;;;13.95;;
49043;SDS011;34860;48.066;14.124;2024-02-16T11:11:28;30.73;;;12.60;;
49043;SDS011;34860;48.066;14.124;2024-02-16T11:14:17;30.95;;;13.00;;
49043;SDS011;34860;48.066;14.124;2024-02-16T11:17:07;31.80;;;12.38;;
49043;SDS011;34860;48.066;14.124;2024-02-16T11:19:59;35.40;;;12.75;;
49043;SDS011;34860;48.066;14.124;2024-02-16T11:22:49;31.05;;;14.63;;
49043;SDS011;34860;48.066;14.124;2024-02-16T11:25:39;37.28;;;12.95;;
49043;SDS011;34860;48.066;14.124;2024-02-16T11:28:40;32.03;;;13.35;;
49043;SDS011;34860;48.066;14.124;2024-02-16T11:31:30;35.85;;;12.13;;
49043;SDS011;34860;48.066;14.124;2024-02-16T11:34:22;36.88;;;12.85;;
49043;SDS011;34860;48.066;14.124;2024-02-16T11:37:13;28.48;;;12.93;;
49043;SDS011;34860;48.066;14.124;2024-02-16T11:40:03;34.85;;;12.95;;
49043;SDS011;34860;48.066;14.124;2024-02-16T11:42:58;27.60;;;12.20;;
49043;SDS011;34860;48.066;14.124;2024-02-16T11:45:49;34.38;;;12.95;;
49043;SDS011;34860;48.066;14.124;2024-02-16T11:48:39;34.75;;;12.13;;
49043;SDS011;34860;48.066;14.124;2024-02-16T11:51:29;23.08;;;10.40;;
49043;SDS011;34860;48.066;14.124;2024-02-16T11:54:18;30.33;;;12.38;;
49043;SDS011;34860;48.066;14.124;2024-02-16T11:57:07;30.73;;;12.02;;
49043;SDS011;34860;48.066;14.124;2024-02-16T11:59:57;28.98;;;12.48;;
49043;SDS011;34860;48.066;14.124;2024-02-16T12:02:58;28.42;;;12.45;;
49043;SDS011;34860;48.066;14.124;2024-02-16T12:05:51;26.15;;;10.35;;
49043;SDS011;34860;48.066;14.124;2024-02-16T12:08:40;25.83;;;11.18;;
49043;SDS011;34860;48.066;14.124;2024-02-16T12:11:30;26.10;;;9.30;;
49043;SDS011;34860;48.066;14.124;2024-02-16T12:14:21;26.60;;;10.68;;
49043;SDS011;34860;48.066;14.124;2024-02-16T12:17:11;22.17;;;8.77;;
49043;SDS011;34860;48.066;14.124;2024-02-16T12:20:02;18.77;;;8.07;;
49043;SDS011;34860;48.066;14.124;2024-02-16T12:23:10;23.20;;;8.20;;
49043;SDS011;34860;48.066;14.124;2024-02-16T12:25:59;22.00;;;8.82;;
49043;SDS011;34860;48.066;14.124;2024-02-16T12:28:49;16.73;;;7.95;;
49043;SDS011;34860;48.066;14.124;2024-02-16T12:31:39;22.58;;;6.15;;
49043;SDS011;34860;48.066;14.124;2024-02-16T12:34:28;22.35;;;8.82;;
49043;SDS011;34860;48.066;14.124;2024-02-16T12:37:20;21.65;;;7.72;;
49043;SDS011;34860;48.066;14.124;2024-02-16T12:40:09;24.25;;;9.00;;
49043;SDS011;34860;48.066;14.124;2024-02-16T12:42:59;21.58;;;7.90;;
49043;SDS011;34860;48.066;14.124;2024-02-16T12:45:48;19.60;;;7.70;;
49043;SDS011;34860;48.066;14.124;2024-02-16T12:48:37;19.13;;;8.20;;
49043;SDS011;34860;48.066;14.124;2024-02-16T12:51:27;18.10;;;6.72;;
49043;SDS011;34860;48.066;14.124;2024-02-16T12:54:17;16.98;;;7.53;;
49043;SDS011;34860;48.066;14.124;2024-02-16T12:57:12;11.98;;;6.20;;
49043;SDS011;34860;48.066;14.124;2024-02-16T13:00:02;16.88;;;7.20;;
49043;SDS011;34860;48.066;14.124;2024-02-16T13:02:54;16.83;;;6.38;;
49043;SDS011;34860;48.066;14.124;2024-02-16T13:05:45;19.02;;;6.70;;
49043;SDS011;34860;48.066;14.124;2024-02-16T13:08:34;14.35;;;6.28;;
49043;SDS011;34860;48.066;14.124;2024-02-16T13:11:26;15.98;;;5.82;;
49043;SDS011;34860;48.066;14.124;2024-02-16T13:14:16;11.70;;;6.53;;
49043;SDS011;34860;48.066;14.124;2024-02-16T13:17:06;8.95;;;4.85;;
49043;SDS011;34860;48.066;14.124;2024-02-16T13:19:55;12.85;;;6.50;;
49043;SDS011;34860;48.066;14.124;2024-02-16T13:22:51;10.57;;;5.28;;
49043;SDS011;34860;48.066;14.124;2024-02-16T13:25:40;12.55;;;5.70;;
49043;SDS011;34860;48.066;14.124;2024-02-16T13:28:30;14.40;;;6.25;;
49043;SDS011;34860;48.066;14.124;2024-02-16T13:31:20;12.95;;;5.25;;
49043;SDS011;34860;48.066;14.124;2024-02-16T13:34:10;11.55;;;5.20;;
49043;SDS011;34860;48.066;14.124;2024-02-16T13:36:59;13.45;;;5.32;;
49043;SDS011;34860;48.066;14.124;2024-02-16T13:39:48;13.18;;;4.45;;
49043;SDS011;34860;48.066;14.124;2024-02-16T13:42:38;14.40;;;4.85;;
49043;SDS011;34860;48.066;14.124;2024-02-16T13:45:46;10.00;;;4.80;;
49043;SDS011;34860;48.066;14.124;2024-02-16T13:48:37;10.68;;;4.88;;
49043;SDS011;34860;48.066;14.124;2024-02-16T13:51:28;14.02;;;5.70;;
49043;SDS011;34860;48.066;14.124;2024-02-16T13:54:18;8.93;;;4.25;;
49043;SDS011;34860;48.066;14.124;2024-02-16T13:57:09;20.38;;;7.35;;
49043;SDS011;34860;48.066;14.124;2024-02-16T13:59:59;20.90;;;7.93;;
49043;SDS011;34860;48.066;14.124;2024-02-16T14:03:00;13.20;;;6.03;;
49043;SDS011;34860;48.066;14.124;2024-02-16T14:05:49;12.05;;;5.93;;
49043;SDS011;34860;48.066;14.124;2024-02-16T14:08:38;12.52;;;6.00;;
49043;SDS011;34860;48.066;14.124;2024-02-16T14:11:31;11.00;;;4.88;;
49043;SDS011;34860;48.066;14.124;2024-02-16T14:14:20;9.50;;;5.00;;
49043;SDS011;34860;48.066;14.124;2024-02-16T14:17:11;12.75;;;5.50;;
49043;SDS011;34860;48.066;14.124;2024-02-16T14:20:04;8.10;;;4.03;;
49043;SDS011;34860;48.066;14.124;2024-02-16T14:22:54;8.98;;;4.40;;
49043;SDS011;34860;48.066;14.124;2024-02-16T14:25:44;13.10;;;4.97;;
49043;SDS011;34860;48.066;14.124;2024-02-16T14:28:34;8.95;;;3.83;;
49043;SDS011;34860;48.066;14.124;2024-02-16T14:31:23;7.78;;;3.38;;
49043;SDS011;34860;48.066;14.124;2024-02-16T14:34:12;9.02;;;4.07;;
49043;SDS011;34860;48.066;14.124;2024-02-16T14:37:03;7.90;;;4.00;;
49043;SDS011;34860;48.066;14.124;2024-02-16T14:39:53;9.05;;;4.22;;
49043;SDS011;34860;48.066;14.124;2024-02-16T14:42:44;8.63;;;3.45;;
49043;SDS011;34860;48.066;14.124;2024-02-16T14:45:34;13.02;;;4.40;;
49043;SDS011;34860;48.066;14.124;2024-02-16T14:48:25;11.55;;;5.20;;
49043;SDS011;34860;48.066;14.124;2024-02-16T14:51:14;13.18;;;4.80;;
49043;SDS011;34860;48.066;14.124;2024-02-16T14:54:05;11.02;;;4.75;;
49043;SDS011;34860;48.066;14.124;2024-02-16T14:56:55;8.23;;;4.18;;
49043;SDS011;34860;48.066;14.124;2024-02-16T14:59:44;11.55;;;4.88;;
49043;SDS011;34860;48.066;14.124;2024-02-16T15:02:34;9.45;;;4.65;;
49043;SDS011;34860;48.066;14.124;2024-02-16T15:05:23;9.85;;;4.72;;
49043;SDS011;34860;48.066;14.124;2024-02-16T15:08:13;10.88;;;5.05;;
49043;SDS011;34860;48.066;14.124;2024-02-16T15:11:04;10.43;;;4.95;;
49043;SDS011;34860;48.066;14.124;2024-02-16T15:13:53;10.73;;;5.03;;
49043;SDS011;34860;48.066;14.124;2024-02-16T15:16:42;12.98;;;5.55;;
49043;SDS011;34860;48.066;14.124;2024-02-16T15:19:31;11.05;;;5.15;;
49043;SDS011;34860;48.066;14.124;2024-02-16T15:22:20;10.40;;;5.32;;
49043;SDS011;34860;48.066;14.124;2024-02-16T15:25:10;9.98;;;5.15;;
49043;SDS011;34860;48.066;14.124;2024-02-16T15:28:00;9.30;;;4.55;;
49043;SDS011;34860;48.066;14.124;2024-02-16T15:30:52;14.13;;;5.97;;
49043;SDS011;34860;48.066;14.124;2024-02-16T15:33:41;9.88;;;5.18;;
49043;SDS011;34860;48.066;14.124;2024-02-16T15:36:31;11.40;;;5.07;;
49043;SDS011;34860;48.066;14.124;2024-02-16T15:39:20;12.85;;;5.55;;
49043;SDS011;34860;48.066;14.124;2024-02-16T15:42:12;14.63;;;4.55;;
49043;SDS011;34860;48.066;14.124;2024-02-16T15:45:03;14.60;;;5.72;;
49043;SDS011;34860;48.066;14.124;2024-02-16T15:47:53;11.88;;;5.75;;
49043;SDS011;34860;48.066;14.124;2024-02-16T15:50:44;11.70;;;5.20;;
49043;SDS011;34860;48.066;14.124;2024-02-16T15:53:34;16.48;;;6.45;;
49043;SDS011;34860;48.066;14.124;2024-02-16T15:56:23;11.07;;;5.30;;
49043;SDS011;34860;48.066;14.124;2024-02-16T15:59:14;10.43;;;4.90;;
49043;SDS011;34860;48.066;14.124;2024-02-16T16:02:05;11.98;;;5.32;;
49043;SDS011;34860;48.066;14.124;2024-02-16T16:04:54;12.45;;;5.82;;
49043;SDS011;34860;48.066;14.124;2024-02-16T16:07:44;14.65;;;4.90;;
49043;SDS011;34860;48.066;14.124;2024-02-16T16:10:33;17.13;;;6.03;;
49043;SDS011;34860;48.066;14.124;2024-02-16T16:13:23;11.70;;;5.55;;
49043;SDS011;34860;48.066;14.124;2024-02-16T16:16:12;11.50;;;5.20;;
49043;SDS011;34860;48.066;14.124;2024-02-16T16:19:03;11.23;;;5.82;;
49043;SDS011;34860;48.066;14.124;2024-02-16T16:21:52;19.35;;;5.65;;
49043;SDS011;34860;48.066;14.124;2024-02-16T16:24:43;10.93;;;4.53;;
49043;SDS011;34860;48.066;14.124;2024-02-16T16:27:32;10.18;;;4.93;;
49043;SDS011;34860;48.066;14.124;2024-02-16T16:30:21;10.95;;;4.97;;
49043;SDS011;34860;48.066;14.124;2024-02-16T16:33:10;15.52;;;5.35;;
49043;SDS011;34860;48.066;14.124;2024-02-16T16:36:01;9.77;;;4.93;;
49043;SDS011;34860;48.066;14.124;2024-02-16T16:38:57;12.23;;;4.85;;